Time;durP1;ratioP1;P1;durP2;ratioP2;P2;SDS_P1;SDS_P2;PMS_P1;PMS_P2;Temp;Humidity;BMP_temperature;BMP_pressure;BME280_temperature;BME280_humidity;BME280_pressure;Samples;Min_cycle;Max_cycle;Signal;HPM_P1;HPM_P2
2022/08/30 00:01:05;;;;;;;6.13;2.50;;;16.40;99.90;;;;;;5146226;27;20051;-71
2022/08/30 00:03:37;;;;;;;5.28;2.65;;;16.30;99.90;;;;;;5113157;28;20035;-72
2022/08/30 00:06:07;;;;;;;4.57;2.27;;;16.30;99.90;;;;;;5111867;28;20119;-71
2022/08/30 00:08:33;;;;;;;6.15;2.60;;;16.30;99.90;;;;;;5111896;28;20047;-71
2022/08/30 00:11:00;;;;;;;5.85;2.50;;;16.30;99.90;;;;;;5113023;28;20110;-71
2022/08/30 00:13:26;;;;;;;6.00;2.50;;;16.20;99.90;;;;;;5111663;28;20055;-71
2022/08/30 00:15:52;;;;;;;6.28;2.95;;;16.20;99.90;;;;;;5113796;28;20058;-71
2022/08/30 00:18:19;;;;;;;6.65;2.88;;;16.20;99.90;;;;;;5098487;28;20043;-71
2022/08/30 00:20:47;;;;;;;6.57;2.80;;;16.20;99.90;;;;;;5116606;28;20032;-71
2022/08/30 00:23:13;;;;;;;5.32;2.13;;;16.30;99.90;;;;;;5115424;28;20039;-71
2022/08/30 00:25:39;;;;;;;3.83;2.17;;;16.30;99.90;;;;;;5098566;28;20036;-71
2022/08/30 00:28:05;;;;;;;5.68;2.78;;;16.30;99.90;;;;;;5115316;28;20092;-71
2022/08/30 00:30:30;;;;;;;4.43;2.13;;;16.20;99.90;;;;;;5116524;28;20042;-71
2022/08/30 00:32:56;;;;;;;5.55;2.88;;;16.20;99.90;;;;;;5149547;27;20126;-71
2022/08/30 00:35:22;;;;;;;8.00;2.75;;;16.10;99.90;;;;;;5115075;28;20186;-71
2022/08/30 00:37:49;;;;;;;6.60;2.90;;;16.00;99.90;;;;;;5116535;28;20069;-71
2022/08/30 00:40:16;;;;;;;5.00;2.42;;;16.00;99.90;;;;;;5115361;28;20043;-71
2022/08/30 00:42:43;;;;;;;4.75;2.00;;;15.90;99.90;;;;;;5097903;28;20043;-71
2022/08/30 00:45:18;;;;;;;4.95;2.03;;;15.90;99.90;;;;;;5116286;28;20498;-71
2022/08/30 00:47:44;;;;;;;5.50;2.38;;;15.90;99.90;;;;;;5115172;28;20078;-71
2022/08/30 00:50:12;;;;;;;5.45;2.30;;;15.80;99.90;;;;;;5116073;28;20506;-71
2022/08/30 00:52:40;;;;;;;5.30;2.38;;;15.90;99.90;;;;;;5114745;28;20035;-71
2022/08/30 00:55:07;;;;;;;6.07;2.70;;;15.90;99.90;;;;;;5115070;28;20384;-72
2022/08/30 00:57:34;;;;;;;5.50;2.80;;;16.00;99.90;;;;;;5115014;28;20445;-71
2022/08/30 01:00:01;;;;;;;5.28;2.53;;;15.90;99.90;;;;;;5114734;28;20048;-71
2022/08/30 01:02:29;;;;;;;5.32;3.00;;;15.90;99.90;;;;;;5097466;28;20093;-71
2022/08/30 01:04:56;;;;;;;7.25;3.55;;;15.90;99.90;;;;;;5115884;28;20036;-71
2022/08/30 01:07:22;;;;;;;6.50;3.55;;;15.80;99.90;;;;;;5097555;28;20093;-71
2022/08/30 01:09:48;;;;;;;7.53;4.22;;;15.80;99.90;;;;;;5114539;28;20050;-71
2022/08/30 01:12:14;;;;;;;7.93;3.50;;;15.80;99.90;;;;;;5114402;28;20039;-71
2022/08/30 01:14:40;;;;;;;7.60;4.30;;;15.80;99.90;;;;;;5115468;28;20045;-71
2022/08/30 01:17:06;;;;;;;6.47;3.60;;;15.80;99.90;;;;;;5114640;28;20395;-70
2022/08/30 01:19:47;;;;;;;7.95;3.95;;;15.80;99.90;;;;;;5114247;28;20044;-71
2022/08/30 01:22:28;;;;;;;8.60;4.22;;;15.80;99.90;;;;;;5115628;28;20035;-71
2022/08/30 01:24:56;;;;;;;8.05;3.97;;;15.80;99.90;;;;;;5097202;28;20122;-71
2022/08/30 01:27:24;;;;;;;6.38;3.42;;;15.80;99.90;;;;;;5096094;28;20036;-71
2022/08/30 01:29:50;;;;;;;7.50;4.63;;;15.80;99.90;;;;;;5115371;28;20092;-71
2022/08/30 01:32:19;;;;;;;9.68;4.10;;;15.80;99.90;;;;;;5115402;28;20408;-71
2022/08/30 01:34:47;;;;;;;9.52;4.13;;;15.80;99.90;;;;;;5097340;28;20043;-71
2022/08/30 01:37:16;;;;;;;7.03;4.10;;;15.70;99.90;;;;;;5113930;28;20054;-70
2022/08/30 01:39:45;;;;;;;7.20;4.00;;;15.70;99.90;;;;;;5096850;28;20118;-70
2022/08/30 01:42:11;;;;;;;8.35;4.05;;;15.70;99.90;;;;;;5115041;28;20043;-70
2022/08/30 01:44:37;;;;;;;9.55;4.50;;;15.60;99.90;;;;;;5114061;28;20065;-70
2022/08/30 01:47:03;;;;;;;10.20;4.60;;;15.60;99.90;;;;;;5113731;28;20542;-71
2022/08/30 01:49:29;;;;;;;7.88;4.00;;;15.60;99.90;;;;;;5115100;28;20446;-71
2022/08/30 01:51:55;;;;;;;9.82;4.38;;;15.60;99.90;;;;;;5113815;28;20054;-71
2022/08/30 01:54:20;;;;;;;6.88;3.75;;;15.60;99.90;;;;;;5113525;28;20032;-71
2022/08/30 01:56:46;;;;;;;8.85;4.35;;;15.60;99.90;;;;;;5114721;28;20395;-72
2022/08/30 01:59:12;;;;;;;8.00;3.28;;;15.70;99.90;;;;;;5114697;28;20083;-71
2022/08/30 02:01:38;;;;;;;5.03;3.00;;;15.70;99.90;;;;;;5114747;28;20039;-71
2022/08/30 02:04:05;;;;;;;7.75;3.58;;;15.70;99.90;;;;;;5113388;28;20085;-71
2022/08/30 02:06:31;;;;;;;10.25;3.40;;;15.80;99.90;;;;;;5113376;28;20118;-70
2022/08/30 02:08:57;;;;;;;7.07;3.63;;;15.70;99.90;;;;;;5147728;27;20128;-70
2022/08/30 02:11:23;;;;;;;8.13;3.92;;;15.70;99.90;;;;;;5113265;28;20043;-70
2022/08/30 02:13:48;;;;;;;6.72;3.50;;;15.60;99.90;;;;;;5114197;28;20069;-70
2022/08/30 02:16:17;;;;;;;6.68;3.58;;;15.60;99.90;;;;;;5147715;27;20047;-69
2022/08/30 02:18:43;;;;;;;6.63;3.53;;;15.60;99.90;;;;;;5130053;27;20503;-70
2022/08/30 02:21:09;;;;;;;6.93;3.50;;;15.60;99.90;;;;;;5147713;27;20043;-70
2022/08/30 02:23:35;;;;;;;8.05;3.72;;;15.60;99.90;;;;;;5114191;28;20032;-70
2022/08/30 02:26:02;;;;;;;8.75;3.53;;;15.60;99.90;;;;;;5113001;28;20563;-71
2022/08/30 02:28:28;;;;;;;7.32;3.38;;;15.60;99.90;;;;;;5113070;28;20047;-70
2022/08/30 02:30:54;;;;;;;6.50;3.28;;;15.50;99.90;;;;;;5147278;27;20077;-70
2022/08/30 02:33:19;;;;;;;6.70;3.50;;;15.50;99.90;;;;;;5147289;27;20061;-70
2022/08/30 02:35:45;;;;;;;6.15;2.90;;;15.50;99.90;;;;;;5112883;28;20093;-70
2022/08/30 02:38:10;;;;;;;6.60;3.33;;;15.40;99.90;;;;;;5147009;27;20036;-70
2022/08/30 02:40:36;;;;;;;9.20;4.00;;;15.50;99.90;;;;;;5104203;28;20444;-70
2022/08/30 02:43:02;;;;;;;7.28;3.75;;;15.40;99.90;;;;;;5113969;28;20225;-70
2022/08/30 02:45:27;;;;;;;7.65;3.58;;;15.40;99.90;;;;;;5113202;28;20047;-70
2022/08/30 02:47:55;;;;;;;7.75;3.65;;;15.40;99.90;;;;;;5147219;27;20039;-70
2022/08/30 02:50:21;;;;;;;6.45;3.10;;;15.40;99.90;;;;;;5113927;28;20062;-70
2022/08/30 02:52:47;;;;;;;6.50;3.35;;;15.30;99.90;;;;;;5112723;28;20035;-70
2022/08/30 02:55:12;;;;;;;6.28;3.08;;;15.30;99.90;;;;;;5114073;28;20548;-70
2022/08/30 02:57:38;;;;;;;6.60;3.35;;;15.30;99.90;;;;;;5113754;28;20062;-70
2022/08/30 03:00:07;;;;;;;6.93;3.55;;;15.20;99.90;;;;;;5147384;27;20134;-70
2022/08/30 03:02:33;;;;;;;6.72;3.30;;;15.20;99.90;;;;;;5112663;28;20391;-70
2022/08/30 03:04:58;;;;;;;6.70;3.25;;;15.10;99.90;;;;;;5112710;28;20036;-70
2022/08/30 03:07:24;;;;;;;6.50;3.40;;;15.10;99.90;;;;;;5146960;27;20047;-70
2022/08/30 03:09:49;;;;;;;6.55;3.20;;;15.10;99.90;;;;;;5146988;27;20061;-70
2022/08/30 03:12:15;;;;;;;7.53;3.60;;;15.00;99.90;;;;;;5146791;27;20118;-69
2022/08/30 03:14:41;;;;;;;6.63;3.25;;;14.90;99.90;;;;;;5113380;28;20461;-70
2022/08/30 03:17:08;;;;;;;5.65;3.20;;;14.90;99.90;;;;;;5146650;27;20085;-70
2022/08/30 03:19:35;;;;;;;6.72;3.28;;;14.80;99.90;;;;;;5112180;28;20042;-70
2022/08/30 03:22:03;;;;;;;6.47;3.40;;;14.80;99.90;;;;;;5112272;28;20122;-70
2022/08/30 03:24:28;;;;;;;6.13;3.08;;;14.70;99.90;;;;;;5112457;28;20035;-70
2022/08/30 03:26:54;;;;;;;6.10;3.53;;;14.70;99.90;;;;;;5113641;28;20560;-70
2022/08/30 03:29:19;;;;;;;7.47;3.50;;;14.60;99.90;;;;;;5113615;28;20031;-70
2022/08/30 03:31:45;;;;;;;6.75;3.35;;;14.60;99.90;;;;;;5146568;27;20084;-70
2022/08/30 03:34:11;;;;;;;7.20;3.25;;;14.50;99.90;;;;;;5113402;28;20074;-70
2022/08/30 03:36:37;;;;;;;7.18;3.67;;;14.60;99.90;;;;;;5113327;28;20097;-70
2022/08/30 03:39:07;;;;;;;6.70;3.65;;;14.50;99.90;;;;;;5146491;27;20043;-70
2022/08/30 03:41:33;;;;;;;7.20;3.75;;;14.50;99.90;;;;;;5112180;28;20043;-69
2022/08/30 03:44:00;;;;;;;7.25;4.18;;;14.50;99.90;;;;;;5111996;28;20040;-69
2022/08/30 03:46:26;;;;;;;6.90;4.05;;;14.40;99.90;;;;;;5129379;28;20452;-70
2022/08/30 03:48:54;;;;;;;5.85;3.60;;;14.40;99.90;;;;;;5111997;28;20035;-70
2022/08/30 03:51:23;;;;;;;7.38;3.75;;;14.40;99.90;;;;;;5114833;28;20044;-70
2022/08/30 03:53:49;;;;;;;7.30;4.10;;;14.30;99.90;;;;;;5115941;28;20635;-70
2022/08/30 03:56:15;;;;;;;6.95;4.05;;;14.20;99.90;;;;;;5099215;28;20141;-70
2022/08/30 03:58:41;;;;;;;7.03;4.38;;;14.20;99.90;;;;;;5117018;28;20120;-70
2022/08/30 04:01:07;;;;;;;5.85;3.53;;;14.20;99.90;;;;;;5098819;28;20071;-70
2022/08/30 04:03:32;;;;;;;7.90;4.10;;;14.10;99.90;;;;;;5116907;28;20046;-70
2022/08/30 04:05:59;;;;;;;8.95;4.30;;;14.10;99.90;;;;;;5098759;28;20051;-70
2022/08/30 04:08:25;;;;;;;7.47;4.03;;;14.00;99.90;;;;;;5099102;28;20052;-70
2022/08/30 04:10:52;;;;;;;8.50;4.10;;;14.00;99.90;;;;;;5117032;28;20042;-70
2022/08/30 04:13:18;;;;;;;7.32;3.85;;;14.00;99.90;;;;;;5116672;28;20053;-70
2022/08/30 04:15:44;;;;;;;6.70;3.75;;;13.90;99.90;;;;;;5115847;28;20110;-71
2022/08/30 04:18:10;;;;;;;6.03;3.55;;;13.90;99.90;;;;;;5149784;27;20081;-71
2022/08/30 04:20:36;;;;;;;7.63;4.05;;;13.90;99.90;;;;;;5116712;28;20044;-70
2022/08/30 04:23:02;;;;;;;7.15;4.10;;;13.90;99.90;;;;;;5115411;28;20054;-70
2022/08/30 04:25:28;;;;;;;7.28;3.65;;;13.80;99.90;;;;;;5098338;28;20031;-70
2022/08/30 04:27:54;;;;;;;7.95;4.57;;;13.80;99.90;;;;;;5116585;28;20038;-70
2022/08/30 04:30:20;;;;;;;7.80;3.60;;;13.80;99.90;;;;;;5116577;28;20510;-70
2022/08/30 04:32:45;;;;;;;6.80;4.05;;;13.70;99.90;;;;;;5116320;28;20035;-70
2022/08/30 04:35:12;;;;;;;7.68;4.40;;;13.70;99.90;;;;;;5115379;28;20039;-70
2022/08/30 04:37:38;;;;;;;7.40;3.80;;;13.60;99.90;;;;;;5115145;28;20083;-71
2022/08/30 04:40:05;;;;;;;6.47;3.88;;;13.60;99.90;;;;;;5098006;28;20051;-71
2022/08/30 04:42:33;;;;;;;8.27;3.92;;;13.60;99.90;;;;;;5097984;28;20050;-71
2022/08/30 04:45:01;;;;;;;7.53;4.10;;;13.60;99.90;;;;;;5115002;28;20044;-70
2022/08/30 04:47:27;;;;;;;8.45;4.05;;;13.50;99.90;;;;;;5116180;27;20145;-70
2022/08/30 04:49:53;;;;;;;7.97;4.30;;;13.50;99.90;;;;;;5097897;28;20508;-71
2022/08/30 04:52:19;;;;;;;7.10;4.00;;;13.40;99.90;;;;;;5115123;28;20047;-70
2022/08/30 04:54:44;;;;;;;8.35;4.50;;;13.40;99.90;;;;;;5149125;27;20051;-70
2022/08/30 04:57:10;;;;;;;7.72;4.45;;;13.40;99.90;;;;;;5149079;27;20095;-71
2022/08/30 04:59:38;;;;;;;8.40;4.85;;;13.40;99.90;;;;;;5115857;28;20392;-71
2022/08/30 05:02:04;;;;;;;8.98;4.90;;;13.40;99.90;;;;;;5114739;28;20047;-71
2022/08/30 05:04:29;;;;;;;9.13;5.20;;;13.40;99.90;;;;;;5114840;28;20039;-71
2022/08/30 05:06:55;;;;;;;7.82;4.47;;;13.40;99.90;;;;;;5149246;27;20487;-71
2022/08/30 05:09:21;;;;;;;7.57;4.78;;;13.30;99.90;;;;;;5115892;28;20503;-71
2022/08/30 05:11:47;;;;;;;8.60;4.75;;;13.30;99.90;;;;;;5149160;27;20040;-71
2022/08/30 05:14:13;;;;;;;9.75;4.90;;;13.20;99.90;;;;;;5114179;28;20066;-71
2022/08/30 05:16:40;;;;;;;7.07;4.15;;;13.20;99.90;;;;;;5114364;28;20047;-70
2022/08/30 05:19:06;;;;;;;8.63;5.00;;;13.20;99.90;;;;;;5114295;28;20035;-71
2022/08/30 05:21:32;;;;;;;7.35;4.60;;;13.10;99.90;;;;;;5115740;28;20040;-70
2022/08/30 05:23:59;;;;;;;8.90;4.60;;;13.10;99.90;;;;;;5115397;28;20035;-71
2022/08/30 05:26:30;;;;;;;8.00;4.55;;;13.10;99.90;;;;;;5115538;27;20430;-71
2022/08/30 05:28:56;;;;;;;6.82;4.35;;;13.10;99.90;;;;;;5148652;27;20039;-71
2022/08/30 05:31:25;;;;;;;9.82;5.70;;;13.10;99.90;;;;;;5115262;28;20479;-71
2022/08/30 05:33:52;;;;;;;8.25;4.63;;;13.10;99.90;;;;;;5115493;27;20039;-71
2022/08/30 05:36:20;;;;;;;8.48;5.68;;;13.10;99.90;;;;;;5115181;28;20036;-71
2022/08/30 05:38:46;;;;;;;10.05;5.20;;;13.10;99.90;;;;;;5113852;28;20039;-71
2022/08/30 05:41:12;;;;;;;8.80;5.28;;;13.10;99.90;;;;;;5113922;28;20043;-71
2022/08/30 05:43:39;;;;;;;8.25;5.28;;;13.20;99.90;;;;;;5148286;27;20492;-71
2022/08/30 05:46:09;;;;;;;8.23;4.80;;;13.30;99.90;;;;;;5115200;28;20456;-71
2022/08/30 05:48:35;;;;;;;8.18;5.00;;;13.30;99.90;;;;;;5097234;28;20043;-71
2022/08/30 05:51:13;;;;;;;9.25;5.00;;;13.40;99.90;;;;;;5113700;28;20122;-71
2022/08/30 05:53:40;;;;;;;9.05;4.75;;;13.60;99.90;;;;;;5096752;28;20089;-71
2022/08/30 05:56:09;;;;;;;8.65;4.70;;;13.60;99.90;;;;;;5113434;28;20039;-71
2022/08/30 05:58:36;;;;;;;8.52;4.85;;;13.80;99.90;;;;;;5113451;28;20040;-71
2022/08/30 06:01:02;;;;;;;7.72;4.38;;;13.80;99.90;;;;;;5113475;28;20123;-71
2022/08/30 06:03:28;;;;;;;8.65;4.55;;;13.90;99.90;;;;;;5113497;28;20043;-71
2022/08/30 06:05:53;;;;;;;10.98;5.30;;;14.00;99.90;;;;;;5113315;28;20407;-71
2022/08/30 06:08:34;;;;;;;8.45;4.70;;;14.10;99.90;;;;;;5114574;28;20071;-71
2022/08/30 06:11:00;;;;;;;8.27;4.68;;;14.20;99.90;;;;;;5114753;28;20541;-71
2022/08/30 06:13:25;;;;;;;8.77;5.00;;;14.30;99.90;;;;;;5113746;28;20058;-71
2022/08/30 06:15:51;;;;;;;7.93;4.90;;;14.40;99.90;;;;;;5113283;28;20067;-71
2022/08/30 06:18:17;;;;;;;8.57;4.30;;;14.40;99.90;;;;;;5113069;28;20568;-71
2022/08/30 06:20:46;;;;;;;9.30;4.15;;;14.50;99.90;;;;;;5147845;27;20081;-71
2022/08/30 06:23:12;;;;;;;8.57;4.40;;;14.60;99.90;;;;;;5113102;28;20051;-71
2022/08/30 06:25:38;;;;;;;7.05;4.40;;;14.70;99.90;;;;;;5112970;28;20027;-71
2022/08/30 06:28:07;;;;;;;7.85;3.95;;;14.70;99.90;;;;;;5113032;28;20125;-71
2022/08/30 06:30:33;;;;;;;8.88;4.68;;;14.80;99.90;;;;;;5114215;28;20043;-71
2022/08/30 06:32:59;;;;;;;6.45;3.78;;;14.80;99.90;;;;;;5113019;28;20111;-71
2022/08/30 06:35:25;;;;;;;8.75;4.18;;;14.90;99.90;;;;;;5147229;27;20035;-71
2022/08/30 06:37:51;;;;;;;8.18;3.75;;;15.00;99.90;;;;;;5112731;28;20042;-71
2022/08/30 06:40:19;;;;;;;7.60;3.40;;;15.10;99.90;;;;;;5147425;27;20098;-71
2022/08/30 06:42:45;;;;;;;7.15;3.25;;;15.20;99.90;;;;;;5112779;28;20046;-71
2022/08/30 06:45:10;;;;;;;6.85;3.40;;;15.30;99.90;;;;;;5114055;28;20399;-71
2022/08/30 06:47:36;;;;;;;5.93;2.90;;;15.40;99.90;;;;;;5147157;27;20054;-71
2022/08/30 06:50:02;;;;;;;7.65;3.08;;;15.50;99.90;;;;;;5095989;28;20058;-71
2022/08/30 06:52:28;;;;;;;6.45;2.85;;;15.60;99.90;;;;;;5112560;28;20043;-71
2022/08/30 06:54:55;;;;;;;8.30;2.95;;;15.70;99.90;;;;;;5112497;28;20514;-71
2022/08/30 06:57:20;;;;;;;6.53;2.83;;;15.80;99.90;;;;;;5095557;28;20043;-71
2022/08/30 06:59:46;;;;;;;13.45;3.80;;;15.90;99.90;;;;;;5113672;28;20043;-71
2022/08/30 07:02:11;;;;;;;9.88;3.58;;;16.00;99.90;;;;;;5113696;28;20035;-71
2022/08/30 07:04:37;;;;;;;8.82;3.53;;;16.10;99.90;;;;;;5095491;28;20040;-71
2022/08/30 07:07:03;;;;;;;9.02;3.30;;;16.30;99.90;;;;;;5113570;28;20043;-71
2022/08/30 07:09:29;;;;;;;8.80;3.05;;;16.30;99.90;;;;;;5112379;28;20176;-71
2022/08/30 07:11:55;;;;;;;7.90;2.90;;;16.40;99.90;;;;;;5146805;27;20119;-71
2022/08/30 07:14:21;;;;;;;6.07;2.28;;;16.50;99.90;;;;;;5113592;28;20448;-71
2022/08/30 07:16:47;;;;;;;5.43;2.30;;;16.60;99.90;;;;;;5113578;28;20169;-71
2022/08/30 07:19:12;;;;;;;7.47;2.67;;;16.70;99.90;;;;;;5146555;27;20123;-71
2022/08/30 07:21:42;;;;;;;5.15;2.20;;;16.70;99.90;;;;;;5113478;28;20039;-71
2022/08/30 07:24:09;;;;;;;6.30;2.75;;;16.80;99.90;;;;;;5113809;28;20031;-71
2022/08/30 07:26:42;;;;;;;8.18;2.47;;;16.90;99.90;;;;;;5149028;27;20051;-71
2022/08/30 07:29:08;;;;;;;5.22;2.35;;;17.00;99.90;;;;;;5116543;28;20044;-71
2022/08/30 07:31:35;;;;;;;5.32;2.15;;;17.10;99.90;;;;;;5117718;28;20039;-71
2022/08/30 07:34:02;;;;;;;2.60;1.40;;;17.30;99.90;;;;;;5099336;28;20048;-71
2022/08/30 07:36:28;;;;;;;5.78;2.05;;;17.30;99.90;;;;;;5099230;28;20043;-71
2022/08/30 07:38:53;;;;;;;4.57;1.75;;;17.30;99.90;;;;;;5150609;27;20039;-71
2022/08/30 07:41:25;;;;;;;4.25;1.50;;;17.40;99.90;;;;;;5150711;27;20081;-71
2022/08/30 07:43:52;;;;;;;4.00;1.65;;;17.50;99.90;;;;;;5116223;28;20488;-70
2022/08/30 07:46:18;;;;;;;4.55;1.60;;;17.60;99.90;;;;;;5116075;28;20035;-70
2022/08/30 07:48:43;;;;;;;4.70;1.70;;;17.60;99.90;;;;;;5116079;28;20051;-71
2022/08/30 07:51:11;;;;;;;5.43;1.50;;;17.70;99.90;;;;;;5117310;28;20118;-70
2022/08/30 07:53:37;;;;;;;3.33;1.45;;;17.80;99.90;;;;;;5117316;28;20373;-70
2022/08/30 07:56:03;;;;;;;4.03;1.33;;;17.80;99.90;;;;;;5116127;28;20039;-70
2022/08/30 07:58:29;;;;;;;4.55;1.50;;;17.90;99.90;;;;;;5115885;28;20093;-71
2022/08/30 08:00:58;;;;;;;4.05;1.52;;;17.90;99.90;;;;;;5115834;28;20040;-70
2022/08/30 08:03:27;;;;;;;2.75;1.20;;;17.90;99.90;;;;;;5115835;28;20083;-71
2022/08/30 08:05:54;;;;;;;4.72;1.38;;;18.00;99.90;;;;;;5115655;28;20043;-71
2022/08/30 08:08:20;;;;;;;3.25;1.40;;;18.10;99.90;;;;;;5117161;28;20043;-71
2022/08/30 08:10:46;;;;;;;3.28;1.48;;;18.10;99.90;;;;;;5115700;28;20043;-71
2022/08/30 08:13:12;;;;;;;4.78;1.30;;;18.10;99.90;;;;;;5116751;28;20064;-70
2022/08/30 08:15:38;;;;;;;3.78;1.30;;;18.20;99.90;;;;;;5116772;28;20042;-70
2022/08/30 08:18:04;;;;;;;3.80;1.50;;;18.30;99.90;;;;;;5116940;28;20067;-71
2022/08/30 08:20:33;;;;;;;3.97;1.30;;;18.30;99.90;;;;;;5115517;28;20486;-71
2022/08/30 08:22:59;;;;;;;3.03;1.42;;;18.40;99.90;;;;;;5115695;28;20035;-70
2022/08/30 08:25:25;;;;;;;2.53;1.20;;;18.40;99.90;;;;;;5116777;27;20031;-70
2022/08/30 08:27:52;;;;;;;3.10;1.23;;;18.40;99.90;;;;;;5115326;28;20044;-71
2022/08/30 08:30:18;;;;;;;3.65;1.10;;;18.50;99.90;;;;;;5115564;28;20440;-71
2022/08/30 08:32:44;;;;;;;4.30;1.30;;;18.50;99.90;;;;;;5115482;28;20048;-71
2022/08/30 08:35:10;;;;;;;1.48;1.02;;;18.60;99.90;;;;;;5115280;28;20040;-71
2022/08/30 08:37:38;;;;;;;3.30;1.20;;;18.70;99.90;;;;;;5114506;28;20118;-71
2022/08/30 08:40:04;;;;;;;4.82;1.20;;;18.80;99.90;;;;;;5115156;28;20050;-71
2022/08/30 08:42:47;;;;;;;3.80;1.30;;;18.90;99.90;;;;;;5149512;27;20036;-71
2022/08/30 08:45:17;;;;;;;2.25;1.10;;;19.00;99.90;;;;;;5116350;28;20039;-71
2022/08/30 08:47:56;;;;;;;4.95;1.70;;;19.00;99.90;;;;;;5114931;28;20086;-71
2022/08/30 08:50:22;;;;;;;4.70;1.40;;;19.20;99.90;;;;;;5115009;28;20130;-71
2022/08/30 08:55:49;;;;;;;4.72;1.40;;;19.30;99.90;;;;;;5115047;28;20047;-71
2022/08/30 08:58:48;;;;;;;3.00;1.05;;;19.50;99.90;;;;;;5116064;28;20403;-71
2022/08/30 09:01:17;;;;;;;4.88;1.45;;;19.60;99.90;;;;;;5114259;28;20131;-71
2022/08/30 09:03:44;;;;;;;3.25;1.30;;;19.70;99.90;;;;;;5115802;28;20492;-72
2022/08/30 09:06:35;;;;;;;3.30;1.20;;;19.70;99.90;;;;;;5115908;28;20040;-71
2022/08/30 09:09:00;;;;;;;4.90;1.40;;;19.70;99.90;;;;;;5114603;28;20043;-71
2022/08/30 09:11:29;;;;;;;3.00;1.15;;;19.80;99.90;;;;;;5097534;28;20044;-71
2022/08/30 09:13:55;;;;;;;3.17;1.30;;;19.90;99.90;;;;;;5114195;28;20105;-70
2022/08/30 09:16:48;;;;;;;4.57;1.10;;;20.00;99.90;;;;;;5114382;28;20075;-71
2022/08/30 09:19:30;;;;;;;4.03;1.20;;;20.10;99.90;;;;;;5114348;28;20491;-71
2022/08/30 09:22:12;;;;;;;;;;;19.90;99.90;;;;;;5114962;28;20055;-71
2022/08/30 09:24:44;;;;;;;3.97;1.30;;;20.00;99.90;;;;;;5114673;28;19919;-71
2022/08/30 09:27:14;;;;;;;;;;;19.90;99.90;;;;;;5116005;28;20396;-71
2022/08/30 09:29:50;;;;;;;2.15;1.13;;;19.90;99.90;;;;;;5114426;28;20287;-71
2022/08/30 09:32:28;;;;;;;2.20;1.10;;;20.10;99.90;;;;;;5114171;28;20548;-71
2022/08/30 09:34:54;;;;;;;4.38;1.27;;;20.00;99.90;;;;;;5114007;28;20645;-71
2022/08/30 09:37:30;;;;;;;3.63;1.20;;;20.10;99.90;;;;;;5115201;28;20148;-71
2022/08/30 09:39:56;;;;;;;3.30;1.20;;;20.00;99.90;;;;;;5113985;28;20031;-71
2022/08/30 09:42:24;;;;;;;3.45;1.10;;;20.10;99.90;;;;;;5115245;28;20395;-71
2022/08/30 09:44:52;;;;;;;4.30;1.30;;;20.10;99.90;;;;;;5114133;28;20042;-72
2022/08/30 09:47:27;;;;;;;3.67;1.15;;;20.20;99.90;;;;;;5113668;28;20515;-71
2022/08/30 09:50:04;;;;;;;3.13;1.10;;;20.30;99.90;;;;;;5113110;28;20055;-71
2022/08/30 09:52:48;;;;;;;2.70;1.00;;;20.40;99.90;;;;;;5114999;28;20582;-71
2022/08/30 09:55:25;;;;;;;2.65;1.00;;;20.60;99.90;;;;;;5115005;28;20044;-71
2022/08/30 09:58:20;;;;;;;2.78;1.00;;;20.70;99.90;;;;;;5114775;28;20050;-71
2022/08/30 10:00:54;;;;;;;5.03;1.50;;;21.00;99.90;;;;;;5113839;28;20491;-72
2022/08/30 10:03:29;;;;;;;3.00;1.10;;;21.00;99.90;;;;;;5114829;28;20054;-72
2022/08/30 10:05:57;;;;;;;5.10;1.20;;;20.80;99.90;;;;;;5113411;28;20093;-71
2022/08/30 10:08:37;;;;;;;3.42;1.23;;;20.70;99.90;;;;;;5114612;28;20048;-72
2022/08/30 10:11:32;;;;;;;4.63;1.10;;;20.70;99.90;;;;;;5114679;28;20082;-71
2022/08/30 10:14:12;;;;;;;3.13;1.00;;;20.90;99.90;;;;;;5088156;28;20054;-72
2022/08/30 10:16:43;;;;;;;5.30;1.23;;;20.80;99.90;;;;;;5113507;28;20047;-72
2022/08/30 10:19:22;;;;;;;2.92;1.23;;;20.80;99.90;;;;;;5114339;28;20047;-72
2022/08/30 10:22:12;;;;;;;2.65;1.10;;;20.70;99.90;;;;;;5096266;28;20047;-71
2022/08/30 10:24:44;;;;;;;3.10;1.30;;;20.50;99.90;;;;;;5113384;28;20441;-72
2022/08/30 10:27:19;;;;;;;2.60;1.13;;;20.50;99.90;;;;;;5113311;28;20058;-72
2022/08/30 10:30:09;;;;;;;3.78;1.35;;;20.50;99.90;;;;;;5113364;28;20491;-72
2022/08/30 10:32:56;;;;;;;3.92;1.38;;;20.50;99.90;;;;;;5114340;28;20039;-72
2022/08/30 10:35:26;;;;;;;3.90;1.50;;;20.70;99.90;;;;;;5113219;28;20062;-72
2022/08/30 10:38:23;;;;;;;4.72;1.25;;;20.90;99.90;;;;;;5147243;27;20098;-72
2022/08/30 10:41:17;;;;;;;3.13;1.08;;;20.90;99.80;;;;;;5096163;28;20376;-72
2022/08/30 10:44:01;;;;;;;3.22;1.20;;;21.00;99.90;;;;;;5085184;28;20412;-72
2022/08/30 10:46:42;;;;;;;3.35;1.00;;;21.10;98.60;;;;;;5112996;28;20058;-72
2022/08/30 10:49:14;;;;;;;3.17;1.65;;;21.10;99.90;;;;;;5114008;28;20031;-72
2022/08/30 10:51:53;;;;;;;5.32;1.40;;;21.20;99.90;;;;;;5112943;28;20033;-71
2022/08/30 10:54:30;;;;;;;3.10;1.13;;;21.20;98.30;;;;;;5114170;28;20035;-72
2022/08/30 10:56:56;;;;;;;5.07;1.10;;;21.20;97.90;;;;;;5114008;28;20039;-72
2022/08/30 10:59:21;;;;;;;2.65;1.10;;;21.20;97.20;;;;;;5146789;27;20043;-71
2022/08/30 11:02:04;;;;;;;4.00;1.15;;;21.30;98.70;;;;;;5112567;28;20046;-72
2022/08/30 11:04:37;;;;;;;3.55;1.10;;;21.40;95.90;;;;;;5113747;28;20046;-72
2022/08/30 11:07:06;;;;;;;3.20;1.00;;;21.30;94.70;;;;;;5112767;28;20047;-72
2022/08/30 11:10:05;;;;;;;3.13;1.20;;;21.40;95.70;;;;;;5146959;27;20516;-72
2022/08/30 11:12:36;;;;;;;3.65;1.10;;;21.40;96.30;;;;;;5112646;28;20400;-72
2022/08/30 11:15:21;;;;;;;5.15;1.27;;;21.50;97.70;;;;;;5112458;28;20514;-72
2022/08/30 11:18:13;;;;;;;2.97;1.23;;;21.40;97.20;;;;;;5113710;28;20079;-72
2022/08/30 11:20:40;;;;;;;2.40;1.05;;;21.40;96.50;;;;;;5095404;28;20048;-72
2022/08/30 11:23:26;;;;;;;3.42;1.15;;;21.40;97.60;;;;;;5112492;28;20093;-71
2022/08/30 11:25:56;;;;;;;4.10;1.20;;;21.50;97.00;;;;;;5113741;28;20032;-71
2022/08/30 11:28:54;;;;;;;2.83;1.60;;;21.50;95.30;;;;;;5113626;28;20042;-71
2022/08/30 11:31:20;;;;;;;5.20;1.20;;;21.30;96.60;;;;;;5146568;27;20043;-72
2022/08/30 11:33:50;;;;;;;3.15;1.38;;;21.30;96.40;;;;;;5095224;28;20052;-72
2022/08/30 11:36:31;;;;;;;4.15;1.40;;;21.30;96.80;;;;;;5095223;28;20047;-72
2022/08/30 11:39:27;;;;;;;3.08;1.20;;;21.40;96.50;;;;;;5113370;28;20096;-71
2022/08/30 11:42:30;;;;;;;5.90;1.40;;;21.20;97.30;;;;;;5113385;28;20039;-71
2022/08/30 11:45:21;;;;;;;2.85;1.20;;;21.20;98.10;;;;;;5113071;28;20510;-71
2022/08/30 11:47:49;;;;;;;4.22;1.23;;;21.30;97.20;;;;;;5113377;28;20122;-72
2022/08/30 11:50:15;;;;;;;3.85;1.45;;;21.50;97.70;;;;;;5111874;28;20075;-71
2022/08/30 11:52:58;;;;;;;3.13;1.20;;;21.40;97.20;;;;;;5146676;27;20083;-71
2022/08/30 11:55:27;;;;;;;2.28;1.10;;;21.40;98.10;;;;;;5112107;28;20047;-72
2022/08/30 11:58:06;;;;;;;2.35;1.00;;;21.60;98.40;;;;;;5113428;28;20063;-71
2022/08/30 12:00:42;;;;;;;3.00;1.10;;;21.70;97.90;;;;;;5113285;28;20036;-71
2022/08/30 12:03:13;;;;;;;3.35;1.30;;;21.60;98.40;;;;;;5112279;28;20031;-71
2022/08/30 12:05:43;;;;;;;5.30;1.30;;;21.60;97.70;;;;;;5113276;28;20043;-72
2022/08/30 12:08:34;;;;;;;2.38;1.17;;;21.70;97.80;;;;;;5113251;28;20035;-72
2022/08/30 12:11:07;;;;;;;3.33;1.10;;;21.70;97.60;;;;;;5102568;28;20054;-71
2022/08/30 12:13:33;;;;;;;4.15;1.40;;;21.50;97.00;;;;;;5115050;28;20058;-71
2022/08/30 12:16:10;;;;;;;3.33;1.35;;;21.50;98.10;;;;;;5116858;28;20052;-72
2022/08/30 12:18:49;;;;;;;3.50;1.20;;;21.40;98.50;;;;;;5116806;27;20047;-72
2022/08/30 12:21:20;;;;;;;2.53;0.90;;;21.50;99.10;;;;;;5115526;28;20483;-72
2022/08/30 12:23:51;;;;;;;4.30;1.48;;;21.50;98.10;;;;;;5098458;28;20040;-70
2022/08/30 12:26:27;;;;;;;3.67;1.50;;;21.50;98.30;;;;;;5115574;28;20036;-71
2022/08/30 12:29:19;;;;;;;4.05;1.17;;;21.50;97.50;;;;;;5098636;28;20395;-71
2022/08/30 12:31:47;;;;;;;2.95;1.10;;;21.50;98.50;;;;;;5116517;28;20518;-71
2022/08/30 12:34:39;;;;;;;2.85;1.00;;;21.60;98.10;;;;;;5115289;28;20043;-72
2022/08/30 12:37:07;;;;;;;3.20;1.10;;;21.70;98.10;;;;;;5092650;28;20057;-71
2022/08/30 12:39:38;;;;;;;3.60;1.30;;;21.70;97.80;;;;;;5115126;28;20040;-71
2022/08/30 12:42:24;;;;;;;3.78;1.52;;;21.70;97.30;;;;;;5115441;28;20040;-71
2022/08/30 12:44:53;;;;;;;3.25;1.10;;;21.70;96.50;;;;;;5115119;28;20039;-71
2022/08/30 12:47:43;;;;;;;3.50;1.30;;;21.80;96.90;;;;;;5115110;28;20032;-70
2022/08/30 12:50:12;;;;;;;2.40;1.27;;;21.90;96.70;;;;;;5114870;28;20092;-71
2022/08/30 12:52:40;;;;;;;3.30;1.13;;;21.70;96.40;;;;;;5114880;28;20051;-71
2022/08/30 12:55:06;;;;;;;3.65;1.17;;;21.60;96.50;;;;;;5116231;28;20039;-72
2022/08/30 12:57:40;;;;;;;2.83;1.10;;;21.60;97.20;;;;;;5116039;28;20399;-71
2022/08/30 13:00:09;;;;;;;2.97;1.10;;;21.70;97.20;;;;;;5114702;28;20027;-71
2022/08/30 13:02:50;;;;;;;2.70;1.10;;;21.70;96.90;;;;;;5116024;28;20031;-71
2022/08/30 13:05:30;;;;;;;3.57;1.10;;;21.70;97.10;;;;;;5115985;28;20071;-71